createdAt,value
2022-08-18T00:01:33.189Z,3.55
2022-08-18T00:04:03.198Z,3.42
2022-08-18T00:06:31.240Z,3.63
2022-08-18T00:08:59.719Z,3.75
2022-08-18T00:11:27.612Z,3.42
2022-08-18T00:13:54.566Z,3.55
2022-08-18T00:16:21.305Z,3.78
2022-08-18T00:18:48.164Z,3.85
2022-08-18T00:21:14.883Z,3.63
2022-08-18T00:23:42.741Z,3.50
2022-08-18T00:26:09.491Z,3.90
2022-08-18T00:28:36.490Z,4.03
2022-08-18T00:31:06.285Z,3.80
2022-08-18T00:35:59.793Z,4.60
2022-08-18T00:38:26.590Z,4.07
2022-08-18T00:40:55.390Z,4.18
2022-08-18T00:43:30.931Z,3.77
2022-08-18T00:45:57.777Z,4.10
2022-08-18T00:48:25.461Z,3.75
2022-08-18T00:50:58.984Z,4.25
2022-08-18T00:53:39.648Z,4.25
2022-08-18T00:56:14.986Z,3.95
2022-08-18T00:58:46.701Z,4.00
2022-08-18T01:01:14.604Z,4.45
2022-08-18T01:03:45.853Z,4.10
2022-08-18T01:06:26.814Z,4.32
2022-08-18T01:08:54.551Z,4.15
2022-08-18T01:11:21.574Z,4.05
2022-08-18T01:13:48.552Z,4.32
2022-08-18T01:16:34.071Z,3.53
2022-08-18T01:19:19.714Z,3.50
2022-08-18T01:21:52.456Z,3.78
2022-08-18T01:24:47.685Z,3.70
2022-08-18T01:27:18.859Z,3.75
2022-08-18T01:29:47.628Z,3.95
2022-08-18T01:32:19.805Z,3.58
2022-08-18T01:34:49.114Z,3.92
2022-08-18T01:37:22.721Z,4.18
2022-08-18T01:41:17.375Z,3.83
2022-08-18T01:42:38.530Z,4.28
2022-08-18T01:45:08.057Z,3.72
2022-08-18T01:47:57.320Z,4.35
2022-08-18T01:50:23.270Z,4.13
2022-08-18T01:52:50.910Z,4.50
2022-08-18T01:55:18.322Z,4.35
2022-08-18T01:57:47.848Z,4.25
2022-08-18T02:00:17.207Z,4.13
2022-08-18T02:02:44.158Z,4.07
2022-08-18T02:05:14.931Z,3.85
2022-08-18T02:07:42.594Z,3.72
2022-08-18T02:10:12.178Z,4.78
2022-08-18T02:12:42.542Z,4.28
2022-08-18T02:15:10.321Z,4.53
2022-08-18T02:17:39.473Z,3.95
2022-08-18T02:20:07.582Z,4.50
2022-08-18T02:22:34.977Z,4.35
2022-08-18T02:25:01.960Z,4.25
2022-08-18T02:27:29.148Z,4.57
2022-08-18T02:29:56.515Z,4.10
2022-08-18T02:32:23.773Z,4.32
2022-08-18T02:34:52.356Z,4.40
2022-08-18T02:37:19.087Z,4.00
2022-08-18T02:39:45.877Z,4.72
2022-08-18T02:42:14.877Z,4.70
2022-08-18T02:44:41.625Z,3.88
2022-08-18T02:47:08.971Z,4.47
2022-08-18T02:49:37.020Z,4.53
2022-08-18T02:52:04.318Z,4.25
2022-08-18T02:54:31.098Z,4.35
2022-08-18T02:56:57.981Z,4.18
2022-08-18T02:59:27.908Z,4.60
2022-08-18T03:01:58.725Z,4.32
2022-08-18T03:04:29.414Z,4.53
2022-08-18T03:06:58.782Z,4.70
2022-08-18T03:09:25.832Z,4.20
2022-08-18T03:11:53.732Z,3.85
2022-08-18T03:14:21.194Z,4.03
2022-08-18T03:16:54.000Z,4.55
2022-08-18T03:19:23.516Z,4.47
2022-08-18T03:21:50.518Z,4.90
2022-08-18T03:24:22.705Z,4.47
2022-08-18T03:26:52.075Z,4.53
2022-08-18T03:29:19.658Z,4.80
2022-08-18T03:31:48.995Z,4.28
2022-08-18T03:34:19.907Z,4.63
2022-08-18T03:36:47.824Z,4.35
2022-08-18T03:39:14.663Z,4.70
2022-08-18T03:41:58.633Z,4.70
2022-08-18T03:44:33.296Z,4.43
2022-08-18T03:47:03.927Z,4.78
2022-08-18T03:49:34.004Z,5.10
2022-08-18T03:52:01.664Z,4.93
2022-08-18T03:54:29.447Z,5.20
2022-08-18T03:59:44.143Z,5.32
2022-08-18T04:02:12.129Z,4.20
2022-08-18T04:04:43.242Z,5.22
2022-08-18T04:07:12.079Z,4.90
2022-08-18T04:09:39.512Z,4.70
2022-08-18T04:12:15.538Z,5.05
2022-08-18T04:14:48.568Z,4.75
2022-08-18T04:17:24.846Z,5.10
2022-08-18T04:19:56.334Z,4.80
2022-08-18T04:22:25.098Z,4.90
2022-08-18T04:24:52.503Z,4.90
2022-08-18T04:27:21.210Z,5.13
2022-08-18T04:29:48.511Z,5.38
2022-08-18T04:32:16.040Z,5.35
2022-08-18T04:34:43.017Z,5.68
2022-08-18T04:37:09.992Z,5.47
2022-08-18T04:39:37.598Z,5.13
2022-08-18T04:42:06.028Z,5.38
2022-08-18T04:44:33.054Z,5.03
2022-08-18T04:47:01.420Z,5.25
2022-08-18T04:49:28.305Z,5.35
2022-08-18T04:52:33.996Z,5.70
2022-08-18T04:55:02.031Z,5.15
2022-08-18T04:57:33.991Z,5.25
2022-08-18T05:00:03.158Z,5.25
2022-08-18T05:02:33.207Z,6.03
2022-08-18T05:05:01.678Z,5.25
2022-08-18T05:07:29.498Z,5.10
2022-08-18T05:09:56.473Z,5.30
2022-08-18T05:12:25.762Z,5.10
2022-08-18T05:14:53.983Z,5.45
2022-08-18T05:17:20.780Z,4.85
2022-08-18T05:19:47.640Z,5.05
2022-08-18T05:22:19.724Z,5.20
2022-08-18T05:27:43.299Z,4.80
2022-08-18T05:30:11.529Z,5.05
2022-08-18T05:32:48.633Z,5.32
2022-08-18T05:35:30.878Z,4.40
2022-08-18T05:38:15.982Z,5.13
2022-08-18T05:40:46.262Z,4.82
2022-08-18T05:43:15.573Z,4.65
2022-08-18T05:45:44.224Z,4.80
2022-08-18T05:48:11.074Z,4.35
2022-08-18T05:50:38.062Z,4.43
2022-08-18T05:53:14.596Z,4.63
2022-08-18T05:56:20.189Z,4.30
2022-08-18T05:58:51.751Z,4.78
2022-08-18T06:01:31.320Z,4.05
2022-08-18T06:09:48.710Z,4.53
2022-08-18T06:12:28.142Z,4.47
2022-08-18T06:15:06.290Z,3.97
2022-08-18T06:17:46.710Z,3.95
2022-08-18T06:20:41.064Z,3.80
2022-08-18T06:23:15.092Z,3.97
2022-08-18T06:26:04.425Z,4.38
2022-08-18T06:28:46.475Z,4.50
2022-08-18T06:31:40.896Z,4.90
2022-08-18T06:34:26.242Z,4.25
2022-08-18T06:36:58.969Z,4.30
2022-08-18T06:39:28.769Z,4.07
2022-08-18T06:41:55.591Z,4.30
2022-08-18T06:44:40.759Z,4.20
2022-08-18T06:47:45.226Z,3.60
2022-08-18T06:50:39.199Z,3.78
2022-08-18T06:53:26.764Z,3.83
2022-08-18T06:55:54.740Z,3.92
2022-08-18T06:58:30.806Z,3.70
2022-08-18T07:01:06.137Z,3.80
2022-08-18T07:03:39.487Z,4.03
2022-08-18T07:06:23.134Z,3.83
2022-08-18T07:08:52.119Z,3.70
2022-08-18T07:11:21.993Z,3.75
2022-08-18T07:14:09.105Z,3.67
2022-08-18T07:19:31.441Z,4.13
2022-08-18T07:22:11.579Z,3.75
2022-08-18T07:24:45.191Z,4.00
2022-08-18T07:27:15.536Z,3.78
2022-08-18T07:30:01.347Z,3.63
2022-08-18T07:32:35.681Z,3.88
2022-08-18T07:35:07.573Z,3.65
2022-08-18T07:37:43.408Z,3.92
2022-08-18T07:40:26.264Z,3.35
2022-08-18T07:43:02.085Z,3.65
2022-08-18T07:45:47.820Z,3.72
2022-08-18T07:48:39.929Z,3.50
2022-08-18T07:51:27.096Z,3.92
2022-08-18T07:54:45.317Z,3.55
2022-08-18T07:57:19.842Z,3.80
2022-08-18T08:00:02.212Z,3.70
2022-08-18T08:02:39.179Z,3.70
2022-08-18T08:05:21.830Z,3.33
2022-08-18T08:07:52.221Z,3.97
2022-08-18T08:10:30.659Z,4.60
2022-08-18T08:13:09.098Z,3.80
2022-08-18T08:16:04.254Z,3.65
2022-08-18T08:18:44.654Z,3.78
2022-08-18T08:21:16.742Z,3.80
2022-08-18T08:23:52.576Z,4.00
2022-08-18T08:26:26.966Z,3.70
2022-08-18T08:29:15.341Z,3.50
2022-08-18T08:31:50.181Z,3.25
2022-08-18T08:34:38.625Z,3.78
2022-08-18T08:37:09.483Z,3.90
2022-08-18T08:39:57.998Z,3.50
2022-08-18T08:42:37.458Z,3.70
2022-08-18T08:45:16.295Z,3.67
2022-08-18T08:47:51.012Z,3.50
2022-08-18T08:50:26.633Z,3.58
2022-08-18T08:53:02.190Z,3.78
2022-08-18T08:55:34.382Z,3.47
2022-08-18T08:58:34.521Z,3.63
2022-08-18T09:01:02.651Z,3.70
2022-08-18T09:03:43.712Z,4.75
2022-08-18T09:06:43.596Z,3.67
2022-08-18T09:09:13.435Z,3.35
2022-08-18T09:12:07.394Z,3.85
2022-08-18T09:15:02.300Z,4.07
2022-08-18T09:18:01.028Z,3.58
2022-08-18T09:20:40.485Z,3.33
2022-08-18T09:23:12.073Z,3.78
2022-08-18T09:25:39.333Z,3.40
2022-08-18T09:28:12.499Z,3.70
2022-08-18T09:30:59.913Z,3.80
2022-08-18T09:33:40.643Z,3.80
2022-08-18T09:36:27.300Z,3.42
2022-08-18T09:39:14.404Z,3.63
2022-08-18T09:41:56.305Z,3.40
2022-08-18T09:44:47.987Z,3.15
2022-08-18T09:50:38.169Z,3.28
2022-08-18T09:53:49.300Z,2.90
2022-08-18T09:56:53.419Z,3.70
2022-08-18T09:59:34.421Z,3.42
2022-08-18T10:05:15.746Z,3.30
2022-08-18T10:07:50.172Z,3.40
2022-08-18T10:11:02.327Z,3.10
2022-08-18T10:14:11.155Z,3.00
2022-08-18T10:19:50.209Z,2.90
2022-08-18T10:22:41.953Z,3.28
2022-08-18T10:25:22.898Z,2.80
2022-08-18T10:27:55.423Z,2.80
2022-08-18T10:30:30.445Z,3.20
2022-08-18T10:36:03.123Z,2.40
2022-08-18T10:41:49.426Z,2.78
2022-08-18T10:47:11.877Z,2.72
2022-08-18T10:52:47.270Z,2.90
2022-08-18T11:02:08.072Z,3.03
2022-08-18T11:04:43.210Z,2.90
2022-08-18T11:07:19.582Z,2.67
2022-08-18T11:09:57.310Z,2.78
2022-08-18T11:12:56.043Z,3.17
2022-08-18T11:15:38.244Z,2.80
2022-08-18T11:18:32.893Z,2.90
2022-08-18T11:21:33.057Z,2.75
2022-08-18T11:24:15.979Z,2.55
2022-08-18T11:27:09.818Z,2.85
2022-08-18T11:29:43.165Z,3.10
2022-08-18T11:35:31.698Z,2.78
2022-08-18T11:38:12.460Z,3.22
2022-08-18T11:41:13.038Z,3.05
2022-08-18T11:43:43.366Z,2.92
2022-08-18T11:46:29.332Z,2.80
2022-08-18T11:49:00.415Z,2.80
2022-08-18T11:51:33.685Z,2.72
2022-08-18T11:54:23.444Z,3.00
2022-08-18T11:56:52.221Z,2.90
2022-08-18T11:59:52.631Z,3.00
2022-08-18T12:02:18.034Z,2.72
2022-08-18T12:04:50.418Z,2.78
2022-08-18T12:07:28.822Z,2.55
2022-08-18T12:10:19.410Z,2.45
2022-08-18T12:12:51.909Z,2.90
2022-08-18T12:15:24.079Z,2.45
2022-08-18T12:17:53.623Z,3.00
2022-08-18T12:20:21.804Z,1.92
2022-08-18T12:25:24.888Z,2.20
2022-08-18T12:27:51.978Z,2.50
2022-08-18T12:30:19.257Z,2.45
2022-08-18T12:32:50.612Z,2.15
2022-08-18T12:35:22.210Z,2.50
2022-08-18T12:38:13.924Z,2.50
2022-08-18T12:40:36.667Z,2.40
2022-08-18T12:43:03.520Z,2.20
2022-08-18T12:45:32.948Z,2.45
2022-08-18T12:48:04.297Z,2.25
2022-08-18T12:50:36.284Z,2.25
2022-08-18T12:53:07.694Z,2.28
2022-08-18T12:58:27.728Z,2.53
2022-08-18T13:00:55.665Z,2.28
2022-08-18T13:03:23.723Z,2.33
2022-08-18T13:05:54.541Z,2.30
2022-08-18T13:08:27.535Z,2.53
2022-08-18T13:10:58.408Z,2.40
2022-08-18T13:13:25.277Z,2.20
2022-08-18T13:15:58.464Z,2.70
2022-08-18T13:18:28.598Z,1.90
2022-08-18T13:20:58.336Z,2.15
2022-08-18T13:23:27.622Z,2.20
2022-08-18T13:26:01.588Z,2.08
2022-08-18T13:28:35.778Z,2.15
2022-08-18T13:31:05.490Z,2.35
2022-08-18T13:33:35.088Z,2.20
2022-08-18T13:36:22.371Z,1.98
2022-08-18T13:38:54.567Z,2.50
2022-08-18T13:43:52.237Z,2.63
2022-08-18T13:46:19.782Z,2.53
2022-08-18T13:49:03.064Z,2.38
2022-08-18T13:51:30.604Z,2.88
2022-08-18T13:54:18.380Z,3.20
2022-08-18T13:56:51.558Z,3.42
2022-08-18T13:59:22.627Z,3.03
2022-08-18T14:01:52.977Z,2.72
2022-08-18T14:04:22.305Z,3.40
2022-08-18T14:06:57.317Z,3.67
2022-08-18T14:09:27.814Z,3.90
2022-08-18T14:12:23.335Z,3.28
2022-08-18T14:14:53.701Z,3.33
2022-08-18T14:17:22.849Z,3.00
2022-08-18T14:20:15.359Z,3.13
2022-08-18T14:23:23.945Z,3.35
2022-08-18T14:26:14.415Z,3.40
2022-08-18T14:28:41.524Z,3.03
2022-08-18T14:31:08.591Z,3.10
2022-08-18T14:33:51.700Z,3.15
2022-08-18T14:36:28.901Z,3.63
2022-08-18T14:38:57.767Z,3.50
2022-08-18T14:41:25.566Z,3.03
2022-08-18T14:44:12.366Z,3.22
2022-08-18T14:46:41.009Z,3.53
2022-08-18T14:49:08.220Z,3.42
2022-08-18T14:51:35.617Z,3.10
2022-08-18T14:54:02.707Z,3.28
2022-08-18T14:56:33.337Z,3.38
2022-08-18T14:59:08.082Z,3.42
2022-08-18T15:01:42.682Z,3.50
2022-08-18T15:04:18.525Z,4.07
2022-08-18T15:06:55.942Z,3.38
2022-08-18T15:09:23.998Z,3.90
2022-08-18T15:11:56.581Z,3.80
2022-08-18T15:14:33.277Z,1.80
2022-08-18T15:17:11.799Z,2.33
2022-08-18T15:19:59.150Z,3.00
2022-08-18T15:32:29.090Z,2.57
2022-08-18T15:34:56.929Z,2.20
2022-08-18T15:37:24.345Z,2.35
2022-08-18T15:40:00.838Z,1.48
2022-08-18T15:42:29.874Z,1.55
2022-08-18T15:44:56.849Z,1.98
2022-08-18T15:47:25.303Z,1.08
2022-08-18T15:49:52.546Z,1.45
2022-08-18T15:54:50.665Z,1.90
2022-08-18T15:57:24.304Z,1.05
2022-08-18T16:00:05.105Z,1.40
2022-08-18T16:02:56.127Z,1.40
2022-08-18T16:05:28.870Z,1.73
2022-08-18T16:07:58.897Z,1.42
2022-08-18T16:10:28.170Z,1.30
2022-08-18T16:12:55.688Z,1.30
2022-08-18T16:15:25.223Z,1.95
2022-08-18T16:17:54.756Z,1.45
2022-08-18T16:20:26.084Z,1.58
2022-08-18T16:22:53.915Z,1.00
2022-08-18T16:25:21.503Z,1.50
2022-08-18T16:27:48.886Z,1.52
2022-08-18T16:30:20.206Z,1.45
2022-08-18T16:32:48.050Z,1.48
2022-08-18T16:35:15.844Z,1.48
2022-08-18T16:37:44.271Z,1.15
2022-08-18T16:40:11.841Z,1.50
2022-08-18T16:42:38.715Z,1.05
2022-08-18T16:45:06.924Z,1.20
2022-08-18T16:47:39.100Z,0.80
2022-08-18T16:50:12.280Z,1.13
2022-08-18T16:52:40.203Z,1.20
2022-08-18T16:55:09.386Z,1.15
2022-08-18T16:57:57.882Z,1.17
2022-08-18T17:00:44.442Z,1.05
2022-08-18T17:03:30.263Z,1.00
2022-08-18T17:06:05.518Z,1.08
2022-08-18T17:08:35.848Z,0.93
2022-08-18T17:11:08.867Z,1.13
2022-08-18T17:13:40.392Z,1.42
2022-08-18T17:16:08.789Z,1.48
2022-08-18T17:18:36.629Z,1.17
2022-08-18T17:21:05.968Z,1.13
2022-08-18T17:23:33.200Z,0.90
2022-08-18T17:26:02.567Z,1.20
2022-08-18T17:31:35.698Z,1.48
2022-08-18T17:34:11.835Z,1.45
2022-08-18T17:37:01.577Z,1.90
2022-08-18T17:39:36.457Z,2.55
2022-08-18T17:42:23.021Z,1.42
2022-08-18T17:44:52.603Z,1.73
2022-08-18T17:47:29.508Z,1.90
2022-08-18T17:50:27.949Z,2.05
2022-08-18T17:52:53.362Z,1.73
2022-08-18T17:55:36.518Z,1.73
2022-08-18T17:58:20.773Z,1.70
2022-08-18T18:00:48.133Z,1.52
2022-08-18T18:03:14.956Z,1.48
2022-08-18T18:05:47.708Z,1.50
2022-08-18T18:08:14.547Z,1.92
2022-08-18T18:13:33.748Z,1.15
2022-08-18T18:16:20.609Z,1.30
2022-08-18T18:18:59.978Z,1.20
2022-08-18T18:21:53.431Z,1.38
2022-08-18T18:24:23.731Z,1.00
2022-08-18T18:26:52.416Z,1.02
2022-08-18T18:29:33.311Z,1.20
2022-08-18T18:32:22.575Z,1.30
2022-08-18T18:35:08.005Z,1.17
2022-08-18T18:37:44.540Z,1.17
2022-08-18T18:40:31.818Z,1.00
2022-08-18T18:45:41.248Z,1.00
2022-08-18T18:48:45.217Z,1.20
2022-08-18T18:51:33.309Z,1.00
2022-08-18T19:02:32.926Z,1.00
2022-08-18T19:04:51.079Z,1.10
2022-08-18T19:07:31.045Z,1.20
2022-08-18T19:10:08.205Z,0.90
2022-08-18T19:12:46.789Z,0.90
2022-08-18T19:15:16.132Z,1.20
2022-08-18T19:17:51.872Z,1.25
2022-08-18T19:20:42.579Z,1.30
2022-08-18T19:23:44.566Z,1.50
2022-08-18T19:29:12.733Z,1.38
2022-08-18T19:34:16.745Z,1.23
2022-08-18T19:36:51.474Z,1.77
2022-08-18T19:39:37.442Z,1.20
2022-08-18T19:42:17.399Z,1.33
2022-08-18T19:45:15.877Z,1.42
2022-08-18T19:50:20.828Z,1.50
2022-08-18T19:55:33.662Z,1.50
2022-08-18T20:00:53.846Z,1.77
2022-08-18T20:03:23.432Z,1.70
2022-08-18T20:06:25.275Z,2.38
2022-08-18T20:09:47.831Z,1.75
2022-08-18T20:12:42.953Z,1.90
2022-08-18T20:15:23.191Z,1.90
2022-08-18T20:21:15.405Z,1.58
2022-08-18T20:24:20.693Z,2.03
2022-08-18T20:26:49.674Z,1.40
2022-08-18T20:29:39.440Z,2.22
2022-08-18T20:32:19.826Z,1.92
2022-08-18T20:34:52.054Z,2.05
2022-08-18T20:37:27.299Z,2.30
2022-08-18T20:39:56.753Z,1.95
2022-08-18T20:42:24.578Z,2.42
2022-08-18T20:45:00.389Z,2.22
2022-08-18T20:47:42.444Z,2.15
2022-08-18T20:50:34.436Z,2.28
2022-08-18T20:53:30.793Z,2.05
2022-08-18T20:56:32.561Z,1.85
2022-08-18T20:59:09.287Z,1.95
2022-08-18T21:01:37.477Z,2.08
2022-08-18T21:04:06.610Z,1.88
2022-08-18T21:06:42.209Z,1.90
2022-08-18T21:09:10.569Z,2.17
2022-08-18T21:11:47.557Z,2.20
2022-08-18T21:14:29.773Z,2.05
2022-08-18T21:16:59.030Z,2.15
2022-08-18T21:19:29.741Z,2.67
2022-08-18T21:22:00.546Z,2.40
2022-08-18T21:29:49.500Z,2.55
2022-08-18T21:32:21.987Z,2.13
2022-08-18T21:34:49.352Z,2.05
2022-08-18T21:37:18.583Z,2.10
2022-08-18T21:39:58.239Z,1.73
2022-08-18T21:45:00.508Z,2.17
2022-08-18T21:47:34.064Z,2.08
2022-08-18T21:50:11.421Z,2.10
2022-08-18T21:52:50.517Z,2.40
2022-08-18T21:55:37.229Z,2.65
2022-08-18T21:58:17.737Z,2.45
2022-08-18T22:00:47.716Z,2.47
2022-08-18T22:03:16.700Z,2.90
2022-08-18T22:08:20.471Z,2.35
2022-08-18T22:11:10.348Z,2.83
2022-08-18T22:16:26.020Z,2.75
2022-08-18T22:21:39.128Z,3.17
2022-08-18T22:24:20.709Z,3.05
2022-08-18T22:32:14.537Z,3.40
2022-08-18T22:34:42.106Z,3.25
2022-08-18T22:37:24.571Z,3.90
2022-08-18T22:39:56.790Z,3.40
2022-08-18T22:42:26.747Z,2.95
2022-08-18T22:44:54.151Z,3.33
2022-08-18T22:47:21.646Z,3.20
2022-08-18T22:52:31.998Z,3.55
2022-08-18T22:55:00.766Z,3.97
2022-08-18T22:57:34.635Z,4.40
2022-08-18T23:03:41.782Z,4.13
2022-08-18T23:06:09.866Z,4.90
2022-08-18T23:08:54.284Z,4.00
2022-08-18T23:11:22.758Z,4.20
2022-08-18T23:13:49.514Z,3.88
2022-08-18T23:16:31.879Z,4.00
2022-08-18T23:19:02.203Z,2.88
2022-08-18T23:21:33.764Z,3.60
2022-08-18T23:24:06.337Z,4.05
2022-08-18T23:26:34.346Z,4.00
2022-08-18T23:29:01.482Z,4.05
2022-08-18T23:31:28.362Z,3.40
2022-08-18T23:33:55.146Z,3.60
2022-08-18T23:36:21.948Z,4.03
2022-08-18T23:38:48.763Z,4.10
2022-08-18T23:41:16.478Z,3.90
2022-08-18T23:43:43.254Z,3.53
2022-08-18T23:46:22.239Z,3.80
2022-08-18T23:48:51.060Z,4.18
2022-08-18T23:51:24.069Z,4.23
2022-08-18T23:53:52.408Z,4.50
2022-08-18T23:56:19.869Z,3.85
2022-08-18T23:58:55.323Z,4.38
